createdAt,value
2018-08-16T00:00:58.957Z,101237.84
2018-08-16T00:03:28.480Z,101241.80
2018-08-16T00:05:58.496Z,101243.58
2018-08-16T00:08:28.104Z,101244.95
2018-08-16T00:10:57.655Z,101244.09
2018-08-16T00:13:27.193Z,101244.98
2018-08-16T00:15:56.708Z,101241.91
2018-08-16T00:18:26.291Z,101242.80
2018-08-16T00:20:55.868Z,101241.92
2018-08-16T00:23:25.435Z,101243.69
2018-08-16T00:25:54.964Z,101242.38
2018-08-16T00:28:24.621Z,101241.95
2018-08-16T00:30:54.213Z,101241.99
2018-08-16T00:33:23.803Z,101238.92
2018-08-16T00:35:53.444Z,101240.67
2018-08-16T00:38:23.180Z,101246.39
2018-08-16T00:40:52.801Z,101249.48
2018-08-16T00:43:22.355Z,101242.44
2018-08-16T00:45:51.942Z,101237.16
2018-08-16T00:48:21.611Z,101236.73
2018-08-16T00:50:51.222Z,101241.14
2018-08-16T00:53:20.795Z,101241.16
2018-08-16T00:55:50.441Z,101229.73
2018-08-16T00:58:20.021Z,101240.33
2018-08-16T01:00:49.756Z,101228.47
2018-08-16T01:03:19.319Z,101229.80
2018-08-16T01:05:48.936Z,101236.39
2018-08-16T01:08:18.617Z,101235.95
2018-08-16T01:10:48.392Z,101239.47
2018-08-16T01:13:18.059Z,101231.99
2018-08-16T01:15:47.816Z,101235.07
2018-08-16T01:18:17.745Z,101227.17
2018-08-16T01:20:47.421Z,101227.61
2018-08-16T01:23:17.229Z,101224.52
2018-08-16T01:25:46.889Z,101227.61
2018-08-16T01:28:16.605Z,101227.61
2018-08-16T01:30:46.330Z,101227.59
2018-08-16T01:33:16.053Z,101227.59
2018-08-16T01:35:45.819Z,101227.16
2018-08-16T01:38:15.415Z,101228.48
2018-08-16T01:40:45.142Z,101224.97
2018-08-16T01:43:14.762Z,101226.73
2018-08-16T01:45:44.444Z,101235.08
2018-08-16T01:48:14.371Z,101232.45
2018-08-16T01:50:44.013Z,101233.33
2018-08-16T01:53:13.698Z,101233.82
2018-08-16T01:55:43.305Z,101236.47
2018-08-16T01:58:13.137Z,101230.76
2018-08-16T02:00:42.813Z,101230.33
2018-08-16T02:03:12.424Z,101229.02
2018-08-16T02:05:42.221Z,101227.71
2018-08-16T02:08:11.942Z,101230.83
2018-08-16T02:10:41.640Z,101232.60
2018-08-16T02:13:11.470Z,101229.09
2018-08-16T02:15:41.224Z,101231.29
2018-08-16T02:18:10.998Z,101233.05
2018-08-16T02:20:40.601Z,101236.58
2018-08-16T02:23:10.290Z,101230.90
2018-08-16T02:25:39.922Z,101237.94
2018-08-16T02:28:09.624Z,101234.43
2018-08-16T02:30:39.419Z,101233.99
2018-08-16T02:33:09.562Z,101232.23
2018-08-16T02:35:39.199Z,101228.73
2018-08-16T02:38:08.847Z,101234.00
2018-08-16T02:40:38.611Z,101229.17
2018-08-16T02:43:08.234Z,101228.30
2018-08-16T02:45:38.116Z,101222.58
2018-08-16T02:48:07.725Z,101229.17
2018-08-16T02:50:37.404Z,101225.22
2018-08-16T02:53:07.254Z,101227.84
2018-08-16T02:55:36.958Z,101224.33
2018-08-16T02:58:06.634Z,101225.64
2018-08-16T03:00:36.257Z,101232.24
2018-08-16T03:03:06.131Z,101226.10
2018-08-16T03:05:35.787Z,101227.42
2018-08-16T03:08:05.449Z,101218.66
2018-08-16T03:10:35.078Z,101215.61
2018-08-16T03:13:04.769Z,101215.17
2018-08-16T03:15:34.743Z,101213.86
2018-08-16T03:18:04.420Z,101211.23
2018-08-16T03:20:34.162Z,101215.19
2018-08-16T03:23:03.817Z,101205.52
2018-08-16T03:25:33.417Z,101218.30
2018-08-16T03:28:03.034Z,101212.16
2018-08-16T03:30:32.734Z,101217.86
2018-08-16T03:33:02.474Z,101217.42
2018-08-16T03:35:32.123Z,101213.47
2018-08-16T03:38:01.933Z,101221.81
2018-08-16T03:40:31.621Z,101222.25
2018-08-16T03:43:01.219Z,101224.01
2018-08-16T03:45:31.057Z,101223.57
2018-08-16T03:48:00.641Z,101224.41
2018-08-16T03:50:30.283Z,101222.20
2018-08-16T03:52:59.903Z,101226.16
2018-08-16T03:55:29.602Z,101220.84
2018-08-16T03:57:59.306Z,101215.58
2018-08-16T04:00:28.906Z,101221.28
2018-08-16T04:02:58.472Z,101223.47
2018-08-16T04:05:28.100Z,101217.75
2018-08-16T04:07:57.810Z,101225.20
2018-08-16T04:10:27.446Z,101221.24
2018-08-16T04:12:57.045Z,101226.06
2018-08-16T04:15:26.663Z,101219.42
2018-08-16T04:17:56.281Z,101221.17
2018-08-16T04:20:25.859Z,101229.03
2018-08-16T04:22:55.486Z,101222.41
2018-08-16T04:25:25.175Z,101228.94
2018-08-16T04:27:54.799Z,101219.66
2018-08-16T04:30:24.491Z,101229.55
2018-08-16T04:32:54.190Z,101223.61
2018-08-16T04:35:24.047Z,101218.68
2018-08-16T04:37:53.873Z,101227.68
2018-08-16T04:40:23.617Z,101217.67
2018-08-16T04:42:53.373Z,101219.91
2018-08-16T04:45:22.982Z,101220.55
2018-08-16T04:47:52.590Z,101214.80
2018-08-16T04:50:22.249Z,101218.36
2018-08-16T04:52:51.860Z,101225.23
2018-08-16T04:55:21.601Z,101220.99
2018-08-16T04:57:51.258Z,101224.27
2018-08-16T05:00:20.989Z,101224.38
2018-08-16T05:02:50.659Z,101223.23
2018-08-16T05:05:20.370Z,101224.59
2018-08-16T05:07:49.984Z,101228.25
2018-08-16T05:10:19.644Z,101222.29
2018-08-16T05:12:49.251Z,101222.97
2018-08-16T05:15:18.984Z,101220.23
2018-08-16T05:17:48.578Z,101225.32
2018-08-16T05:20:18.202Z,101225.00
2018-08-16T05:22:47.838Z,101223.29
2018-08-16T05:25:17.441Z,101218.79
2018-08-16T05:27:47.033Z,101219.63
2018-08-16T05:30:16.719Z,101217.81
2018-08-16T05:32:46.327Z,101212.13
2018-08-16T05:35:15.924Z,101210.11
2018-08-16T05:37:45.571Z,101206.89
2018-08-16T05:40:15.253Z,101214.02
2018-08-16T05:42:44.852Z,101214.66
2018-08-16T05:45:14.524Z,101210.75
2018-08-16T05:47:44.191Z,101210.09
2018-08-16T05:50:13.972Z,101204.63
2018-08-16T05:52:43.616Z,101209.77
2018-08-16T05:55:13.230Z,101206.91
2018-08-16T05:57:43.382Z,101205.55
2018-08-16T06:00:14.435Z,101203.88
2018-08-16T06:02:44.113Z,101197.19
2018-08-16T06:05:13.838Z,101200.41
2018-08-16T06:07:43.730Z,101196.43
2018-08-16T06:10:13.346Z,101195.63
2018-08-16T06:12:43.052Z,101192.55
2018-08-16T06:15:12.753Z,101190.84
2018-08-16T06:17:42.346Z,101189.02
2018-08-16T06:20:12.782Z,101191.45
2018-08-16T06:22:42.484Z,101192.20
2018-08-16T06:25:13.894Z,101186.05
2018-08-16T06:27:44.292Z,101200.42
2018-08-16T06:30:17.268Z,101196.55
2018-08-16T06:32:47.177Z,101198.89
2018-08-16T06:35:17.019Z,101195.68
2018-08-16T06:37:46.767Z,101196.50
2018-08-16T06:40:17.930Z,101195.59
2018-08-16T06:42:48.517Z,101187.49
2018-08-16T06:45:18.263Z,101185.45
2018-08-16T06:47:47.918Z,101193.26
2018-08-16T06:50:17.643Z,101187.32
2018-08-16T06:52:47.322Z,101186.83
2018-08-16T06:55:17.103Z,101182.94
2018-08-16T06:57:46.899Z,101187.38
2018-08-16T07:00:16.710Z,101179.59
2018-08-16T07:02:46.437Z,101180.72
2018-08-16T07:05:16.326Z,101185.83
2018-08-16T07:07:46.027Z,101174.97
2018-08-16T07:10:15.762Z,101176.17
2018-08-16T07:12:45.434Z,101183.70
2018-08-16T07:15:16.277Z,101184.70
2018-08-16T07:17:46.067Z,101189.94
2018-08-16T07:20:15.749Z,101183.11
2018-08-16T07:22:45.374Z,101188.31
2018-08-16T07:25:14.962Z,101178.08
2018-08-16T07:27:44.581Z,101184.53
2018-08-16T07:30:14.208Z,101186.48
2018-08-16T07:32:43.802Z,101174.48
2018-08-16T07:35:13.493Z,101179.98
2018-08-16T07:37:43.106Z,101179.07
2018-08-16T07:40:12.797Z,101184.04
2018-08-16T07:42:42.449Z,101179.36
2018-08-16T07:45:12.425Z,101186.13
2018-08-16T07:47:42.034Z,101178.03
2018-08-16T07:50:12.105Z,101172.77
2018-08-16T07:52:41.954Z,101174.84
2018-08-16T07:55:11.918Z,101174.92
2018-08-16T07:57:41.638Z,101176.95
2018-08-16T08:00:17.281Z,101174.30
2018-08-16T08:02:47.350Z,101172.48
2018-08-16T08:05:17.025Z,101172.77
2018-08-16T08:07:46.680Z,101172.44
2018-08-16T08:10:16.378Z,101176.74
2018-08-16T08:12:46.060Z,101176.67
2018-08-16T08:15:16.225Z,101170.15
2018-08-16T08:17:45.878Z,101173.17
2018-08-16T08:20:16.937Z,101163.89
2018-08-16T08:22:46.544Z,101160.59
2018-08-16T08:25:16.372Z,101165.12
2018-08-16T08:27:46.055Z,101159.14
2018-08-16T08:30:17.153Z,101154.48
2018-08-16T08:32:46.758Z,101149.03
2018-08-16T08:35:16.543Z,101154.20
2018-08-16T08:38:02.769Z,101147.73
2018-08-16T08:40:32.402Z,101150.34
2018-08-16T08:43:02.088Z,101155.21
2018-08-16T08:45:31.767Z,101141.40
2018-08-16T08:48:01.460Z,101143.73
2018-08-16T08:50:31.197Z,101139.09
2018-08-16T08:53:17.963Z,101137.26
2018-08-16T08:56:04.560Z,101129.46
2018-08-16T08:58:52.631Z,101127.22
2018-08-16T09:01:22.277Z,101129.72
2018-08-16T09:03:54.955Z,101117.20
2018-08-16T09:06:24.602Z,101117.82
2018-08-16T09:08:54.290Z,101112.72
2018-08-16T09:12:39.511Z,101123.12
2018-08-16T09:15:26.077Z,101114.13
2018-08-16T09:17:55.688Z,101116.47
2018-08-16T09:20:25.313Z,101112.06
2018-08-16T09:22:54.952Z,101106.05
2018-08-16T09:25:24.613Z,101105.20
2018-08-16T09:27:54.263Z,101107.17
2018-08-16T09:30:41.688Z,101110.31
2018-08-16T09:33:28.159Z,101103.17
2018-08-16T09:35:57.841Z,101094.50
2018-08-16T09:38:27.435Z,101094.95
2018-08-16T09:40:57.061Z,101092.97
2018-08-16T09:43:26.685Z,101094.58
2018-08-16T09:47:11.613Z,101097.85
2018-08-16T09:49:44.106Z,101089.22
2018-08-16T09:52:14.442Z,101086.92
2018-08-16T09:54:44.109Z,101074.66
2018-08-16T09:57:15.065Z,101080.30
2018-08-16T09:59:45.314Z,101076.59
2018-08-16T10:02:17.127Z,101073.68
2018-08-16T10:04:46.650Z,101068.81
2018-08-16T10:07:16.279Z,101070.67
2018-08-16T10:09:45.937Z,101061.44
2018-08-16T10:12:15.532Z,101064.93
2018-08-16T10:14:45.165Z,101061.16
2018-08-16T10:17:14.797Z,101056.96
2018-08-16T10:19:44.485Z,101055.80
2018-08-16T10:22:14.179Z,101047.59
2018-08-16T10:24:43.838Z,101045.58
2018-08-16T10:27:13.498Z,101051.11
2018-08-16T10:29:43.256Z,101048.16
2018-08-16T10:32:12.941Z,101039.31
2018-08-16T10:34:42.562Z,101038.70
2018-08-16T10:37:12.431Z,101041.64
2018-08-16T10:39:42.027Z,101049.58
2018-08-16T10:42:11.606Z,101046.56
2018-08-16T10:44:41.245Z,101046.08
2018-08-16T10:47:10.865Z,101036.65
2018-08-16T10:49:40.492Z,101035.14
2018-08-16T10:52:10.132Z,101037.86
2018-08-16T10:54:39.763Z,101030.89
2018-08-16T10:57:09.494Z,101035.42
2018-08-16T10:59:39.097Z,101036.33
2018-08-16T11:02:08.769Z,101032.29
2018-08-16T11:04:38.470Z,101018.79
2018-08-16T11:07:08.168Z,101015.16
2018-08-16T11:09:37.782Z,101015.20
2018-08-16T11:12:07.634Z,101012.70
2018-08-16T11:14:37.318Z,101010.23
2018-08-16T11:17:07.208Z,101019.52
2018-08-16T11:19:36.830Z,101013.79
2018-08-16T11:22:07.006Z,101014.81
2018-08-16T11:24:36.635Z,101008.51
2018-08-16T11:27:07.098Z,100997.88
2018-08-16T11:29:36.706Z,100988.64
2018-08-16T11:32:06.329Z,100991.77
2018-08-16T11:34:36.001Z,100988.13
2018-08-16T11:37:05.970Z,100985.59
2018-08-16T11:39:35.550Z,100976.83
2018-08-16T11:42:05.175Z,100976.03
2018-08-16T11:44:34.809Z,100974.00
2018-08-16T11:47:04.447Z,100983.02
2018-08-16T11:49:34.055Z,100976.58
2018-08-16T11:52:03.732Z,100982.48
2018-08-16T11:54:33.378Z,100964.52
2018-08-16T11:57:03.009Z,100958.34
2018-08-16T11:59:32.603Z,100970.84
2018-08-16T12:02:02.230Z,100966.03
2018-08-16T12:04:31.848Z,100961.52
2018-08-16T12:07:01.443Z,100958.44
2018-08-16T12:09:31.054Z,100963.88
2018-08-16T12:12:00.721Z,100947.43
2018-08-16T12:14:30.398Z,100941.77
2018-08-16T12:17:00.028Z,100939.16
2018-08-16T12:19:29.707Z,100946.27
2018-08-16T12:21:59.486Z,100937.91
2018-08-16T12:24:29.131Z,100938.50
2018-08-16T12:26:58.918Z,100941.07
2018-08-16T12:29:28.602Z,100937.61
2018-08-16T12:31:58.306Z,100925.91
2018-08-16T12:34:27.922Z,100925.69
2018-08-16T12:36:57.541Z,100925.80
2018-08-16T12:39:27.142Z,100917.38
2018-08-16T12:41:56.785Z,100927.27
2018-08-16T12:44:26.744Z,100920.24
2018-08-16T12:46:56.271Z,100915.73
2018-08-16T12:49:25.910Z,100906.78
2018-08-16T12:51:55.527Z,100915.98
2018-08-16T12:54:25.354Z,100916.76
2018-08-16T12:56:55.075Z,100907.83
2018-08-16T12:59:24.834Z,100903.43
2018-08-16T13:01:54.474Z,100897.00
2018-08-16T13:04:24.126Z,100895.73
2018-08-16T13:06:53.766Z,100885.16
2018-08-16T13:09:23.447Z,100872.77
2018-08-16T13:11:52.998Z,100863.17
2018-08-16T13:14:22.681Z,100863.95
2018-08-16T13:16:52.355Z,100865.89
2018-08-16T13:19:21.937Z,100865.79
2018-08-16T13:21:51.606Z,100872.02
2018-08-16T13:24:21.414Z,100869.14
2018-08-16T13:26:51.056Z,100863.67
2018-08-16T13:29:20.637Z,100865.89
2018-08-16T13:31:50.247Z,100861.94
2018-08-16T13:34:19.854Z,100857.43
2018-08-16T13:36:49.455Z,100855.42
2018-08-16T13:39:19.049Z,100860.23
2018-08-16T13:41:50.640Z,100850.91
2018-08-16T13:44:20.258Z,100846.10
2018-08-16T13:46:49.926Z,100842.44
2018-08-16T13:49:19.541Z,100842.92
2018-08-16T13:51:49.139Z,100838.80
2018-08-16T13:54:18.868Z,100839.66
2018-08-16T13:56:48.497Z,100828.23
2018-08-16T13:59:18.127Z,100828.23
2018-08-16T14:01:47.908Z,100836.69
2018-08-16T14:04:17.487Z,100832.75
2018-08-16T14:06:47.110Z,100823.61
2018-08-16T14:09:16.698Z,100818.05
2018-08-16T14:11:46.298Z,100820.55
2018-08-16T14:14:15.902Z,100818.82
2018-08-16T14:16:45.521Z,100820.71
2018-08-16T14:19:15.151Z,100825.55
2018-08-16T14:21:44.744Z,100818.72
2018-08-16T14:24:14.405Z,100812.38
2018-08-16T14:26:44.202Z,100815.17
2018-08-16T14:29:13.928Z,100808.92
2018-08-16T14:31:43.531Z,100808.92
2018-08-16T14:34:13.166Z,100810.36
2018-08-16T14:36:42.816Z,100804.22
2018-08-16T14:39:13.188Z,100804.98
2018-08-16T14:41:43.073Z,100799.41
2018-08-16T14:44:12.703Z,100801.33
2018-08-16T14:46:42.319Z,100796.81
2018-08-16T14:49:11.955Z,100796.11
2018-08-16T14:51:41.740Z,100796.30
2018-08-16T14:54:11.414Z,100792.27
2018-08-16T14:56:41.063Z,100788.61
2018-08-16T14:59:10.702Z,100774.39
2018-08-16T15:01:40.400Z,100788.70
2018-08-16T15:04:10.026Z,100784.19
2018-08-16T15:06:39.613Z,100789.77
2018-08-16T15:09:11.852Z,100782.07
2018-08-16T15:11:41.854Z,100780.78
2018-08-16T15:14:11.737Z,100781.45
2018-08-16T15:16:41.322Z,100783.95
2018-08-16T15:19:11.099Z,100785.91
2018-08-16T15:21:40.693Z,100776.41
2018-08-16T15:24:10.375Z,100774.09
2018-08-16T15:26:39.995Z,100773.56
2018-08-16T15:29:09.585Z,100771.55
2018-08-16T15:31:39.230Z,100773.38
2018-08-16T15:34:09.245Z,100774.04
2018-08-16T15:36:39.020Z,100770.87
2018-08-16T15:39:09.810Z,100764.52
2018-08-16T15:41:39.646Z,100767.60
2018-08-16T15:44:10.158Z,100760.97
2018-08-16T15:46:40.162Z,100762.80
2018-08-16T15:49:09.788Z,100761.64
2018-08-16T15:51:39.442Z,100759.92
2018-08-16T15:54:09.082Z,100757.32
2018-08-16T15:56:38.685Z,100751.66
2018-08-16T15:59:08.575Z,100753.77
2018-08-16T16:01:38.269Z,100753.86
2018-08-16T16:04:08.142Z,100746.38
2018-08-16T16:06:37.790Z,100745.89
2018-08-16T16:09:09.934Z,100746.38
2018-08-16T16:11:39.669Z,100737.63
2018-08-16T16:14:09.460Z,100737.14
2018-08-16T16:16:40.040Z,100735.42
2018-08-16T16:19:09.659Z,100735.80
2018-08-16T16:21:39.456Z,100741.28
2018-08-16T16:24:09.063Z,100732.06
2018-08-16T16:26:38.649Z,100731.00
2018-08-16T16:29:08.267Z,100737.92
2018-08-16T16:31:37.859Z,100738.34
2018-08-16T16:34:08.047Z,100738.63
2018-08-16T16:36:37.778Z,100732.09
2018-08-16T16:39:11.383Z,100727.41
2018-08-16T16:41:41.359Z,100727.61
2018-08-16T16:44:10.953Z,100724.81
2018-08-16T16:46:40.625Z,100722.80
2018-08-16T16:49:10.253Z,100726.28
2018-08-16T16:51:39.921Z,100719.84
2018-08-16T16:54:09.620Z,100715.70
2018-08-16T16:56:39.461Z,100722.23
2018-08-16T16:59:09.148Z,100718.00
2018-08-16T17:01:38.818Z,100711.94
2018-08-16T17:04:08.535Z,100713.95
2018-08-16T17:06:38.452Z,100711.09
2018-08-16T17:09:10.718Z,100715.50
2018-08-16T17:11:40.672Z,100708.58
2018-08-16T17:14:10.495Z,100707.93
2018-08-16T17:16:40.404Z,100710.98
2018-08-16T17:19:10.293Z,100710.39
2018-08-16T17:21:39.926Z,100713.86
2018-08-16T17:24:09.956Z,100713.74
2018-08-16T17:26:39.566Z,100709.98
2018-08-16T17:29:09.453Z,100717.05
2018-08-16T17:31:39.026Z,100710.31
2018-08-16T17:34:08.637Z,100711.09
2018-08-16T17:36:38.370Z,100706.46
2018-08-16T17:39:09.083Z,100709.98
2018-08-16T17:41:38.746Z,100701.53
2018-08-16T17:44:08.712Z,100708.32
2018-08-16T17:46:38.331Z,100706.55
2018-08-16T17:49:07.950Z,100708.83
2018-08-16T17:51:37.538Z,100712.30
2018-08-16T17:54:07.332Z,100703.45
2018-08-16T17:56:36.890Z,100706.08
2018-08-16T17:59:06.581Z,100707.41
2018-08-16T18:01:36.192Z,100711.06
2018-08-16T18:04:05.899Z,100707.66
2018-08-16T18:06:35.570Z,100705.11
2018-08-16T18:09:06.967Z,100701.86
2018-08-16T18:11:36.588Z,100706.31
2018-08-16T18:14:06.246Z,100704.91
2018-08-16T18:16:35.946Z,100704.00
2018-08-16T18:19:05.703Z,100705.42
2018-08-16T18:21:35.512Z,100702.39
2018-08-16T18:24:05.346Z,100703.37
2018-08-16T18:29:19.933Z,100706.98
2018-08-16T18:31:49.917Z,100707.94
2018-08-16T18:34:20.226Z,100706.98
2018-08-16T18:36:49.996Z,100711.87
2018-08-16T18:39:19.718Z,100703.83
2018-08-16T18:41:49.310Z,100714.14
2018-08-16T18:44:18.903Z,100707.91
2018-08-16T18:46:48.675Z,100717.16
2018-08-16T18:49:18.401Z,100712.97
2018-08-16T18:51:47.985Z,100712.89
2018-08-16T18:54:17.638Z,100717.19
2018-08-16T18:56:47.415Z,100715.53
2018-08-16T18:59:17.022Z,100720.18
2018-08-16T19:01:46.661Z,100721.20
2018-08-16T19:04:16.352Z,100721.01
2018-08-16T19:06:45.990Z,100721.33
2018-08-16T19:09:15.597Z,100717.45
2018-08-16T19:11:45.210Z,100726.55
2018-08-16T19:14:14.765Z,100720.14
2018-08-16T19:16:44.478Z,100725.66
2018-08-16T19:19:14.074Z,100726.27
2018-08-16T19:21:43.893Z,100719.33
2018-08-16T19:24:13.466Z,100721.34
2018-08-16T19:26:43.090Z,100722.08
2018-08-16T19:29:12.775Z,100722.75
2018-08-16T19:31:42.366Z,100715.84
2018-08-16T19:34:12.073Z,100715.50
2018-08-16T19:36:41.637Z,100717.51
2018-08-16T19:39:12.799Z,100724.09
2018-08-16T19:41:42.397Z,100720.67
2018-08-16T19:44:11.979Z,100725.75
2018-08-16T19:46:41.698Z,100716.60
2018-08-16T19:49:11.452Z,100725.17
2018-08-16T19:51:41.098Z,100724.77
2018-08-16T19:54:10.758Z,100724.63
2018-08-16T19:56:40.422Z,100720.19
2018-08-16T19:59:10.049Z,100720.78
2018-08-16T20:01:39.775Z,100718.27
2018-08-16T20:04:09.412Z,100719.27
2018-08-16T20:06:39.365Z,100722.16
2018-08-16T20:09:10.938Z,100723.09
2018-08-16T20:11:40.560Z,100717.94
2018-08-16T20:14:10.200Z,100720.09
2018-08-16T20:16:39.940Z,100720.34
2018-08-16T20:19:09.526Z,100715.00
2018-08-16T20:21:39.134Z,100716.12
2018-08-16T20:24:08.794Z,100720.46
2018-08-16T20:26:38.403Z,100724.12
2018-08-16T20:29:08.001Z,100725.91
2018-08-16T20:31:37.632Z,100716.64
2018-08-16T20:34:07.706Z,100716.77
2018-08-16T20:36:37.313Z,100717.33
2018-08-16T20:39:09.128Z,100712.58
2018-08-16T20:41:38.734Z,100714.09
2018-08-16T20:44:08.742Z,100720.47
2018-08-16T20:46:38.421Z,100713.91
2018-08-16T20:49:08.424Z,100713.96
2018-08-16T20:51:38.270Z,100720.22
2018-08-16T20:54:07.894Z,100720.40
2018-08-16T20:56:37.514Z,100721.41
2018-08-16T20:59:07.543Z,100718.95
2018-08-16T21:01:37.152Z,100721.33
2018-08-16T21:04:06.921Z,100726.31
2018-08-16T21:06:36.628Z,100721.63
2018-08-16T21:09:09.311Z,100724.03
2018-08-16T21:11:39.314Z,100723.56
2018-08-16T21:14:09.149Z,100726.70
2018-08-16T21:16:38.836Z,100726.23
2018-08-16T21:19:08.417Z,100725.42
2018-08-16T21:21:38.045Z,100730.86
2018-08-16T21:24:07.911Z,100732.36
2018-08-16T21:26:37.593Z,100733.30
2018-08-16T21:29:07.201Z,100733.81
2018-08-16T21:31:36.960Z,100738.67
2018-08-16T21:34:06.728Z,100736.16
2018-08-16T21:36:36.336Z,100739.86
2018-08-16T21:39:09.393Z,100741.36
2018-08-16T21:41:39.213Z,100743.81
2018-08-16T21:44:09.713Z,100738.20
2018-08-16T21:46:39.290Z,100740.20
2018-08-16T21:49:08.933Z,100735.48
2018-08-16T21:51:38.594Z,100741.95
2018-08-16T21:54:08.551Z,100745.66
2018-08-16T21:56:38.361Z,100741.00
2018-08-16T21:59:07.997Z,100753.08
2018-08-16T22:01:37.609Z,100751.50
2018-08-16T22:04:07.207Z,100748.16
2018-08-16T22:06:53.838Z,100751.84
2018-08-16T22:09:23.489Z,100750.67
2018-08-16T22:11:53.073Z,100758.84
2018-08-16T22:14:22.648Z,100760.32
2018-08-16T22:16:52.230Z,100748.96
2018-08-16T22:19:21.799Z,100748.19
2018-08-16T22:21:51.389Z,100753.70
2018-08-16T22:24:20.978Z,100761.31
2018-08-16T22:26:50.576Z,100756.15
2018-08-16T22:29:20.158Z,100756.25
2018-08-16T22:31:49.705Z,100748.45
2018-08-16T22:34:19.294Z,100754.28
2018-08-16T22:36:48.848Z,100751.72
2018-08-16T22:39:18.477Z,100746.92
2018-08-16T22:41:48.035Z,100747.10
2018-08-16T22:44:17.622Z,100750.72
2018-08-16T22:46:47.207Z,100747.70
2018-08-16T22:49:16.810Z,100749.13
2018-08-16T22:51:46.433Z,100742.58
2018-08-16T22:54:15.926Z,100740.09
2018-08-16T22:56:45.585Z,100742.44
2018-08-16T22:59:15.154Z,100739.01
2018-08-16T23:01:44.782Z,100744.00
2018-08-16T23:04:14.346Z,100737.95
2018-08-16T23:06:43.981Z,100742.44
2018-08-16T23:09:13.668Z,100742.58
2018-08-16T23:11:43.246Z,100737.36
2018-08-16T23:14:12.924Z,100738.86
2018-08-16T23:16:42.502Z,100738.08
2018-08-16T23:19:12.145Z,100739.50
2018-08-16T23:21:41.702Z,100736.52
2018-08-16T23:24:11.228Z,100730.41
2018-08-16T23:26:40.863Z,100734.08
2018-08-16T23:29:10.605Z,100742.59
2018-08-16T23:31:40.333Z,100732.42
2018-08-16T23:34:09.936Z,100736.95
2018-08-16T23:36:39.531Z,100735.25
2018-08-16T23:39:09.246Z,100736.25
2018-08-16T23:41:38.837Z,100735.44
2018-08-16T23:44:08.527Z,100731.99
2018-08-16T23:46:38.164Z,100730.30
2018-08-16T23:49:07.828Z,100733.11
2018-08-16T23:51:37.437Z,100730.50
2018-08-16T23:54:07.083Z,100730.50
2018-08-16T23:56:36.793Z,100726.11
2018-08-16T23:59:06.393Z,100720.88
